sensor_id;sensor_type;location;lat;lon;timestamp;temperature;humidity
17483;DHT22;8858;52.308;20.994;2023-04-23T00:01:47;13.00;99.90
17483;DHT22;8858;52.308;20.994;2023-04-23T00:04:16;12.90;99.90
17483;DHT22;8858;52.308;20.994;2023-04-23T00:06:47;13.00;99.90
17483;DHT22;8858;52.308;20.994;2023-04-23T00:09:42;13.00;99.90
17483;DHT22;8858;52.308;20.994;2023-04-23T00:12:13;12.90;99.90
17483;DHT22;8858;52.308;20.994;2023-04-23T00:14:42;12.90;99.90
17483;DHT22;8858;52.308;20.994;2023-04-23T00:17:10;12.90;99.90
17483;DHT22;8858;52.308;20.994;2023-04-23T00:19:38;12.90;99.90
17483;DHT22;8858;52.308;20.994;2023-04-23T00:22:07;13.00;99.90
17483;DHT22;8858;52.308;20.994;2023-04-23T00:24:36;13.00;99.90
17483;DHT22;8858;52.308;20.994;2023-04-23T00:27:06;13.00;99.90
17483;DHT22;8858;52.308;20.994;2023-04-23T00:29:35;12.90;99.90
17483;DHT22;8858;52.308;20.994;2023-04-23T00:32:06;12.90;99.90
17483;DHT22;8858;52.308;20.994;2023-04-23T00:34:36;12.90;99.90
17483;DHT22;8858;52.308;20.994;2023-04-23T00:37:08;12.90;99.90
17483;DHT22;8858;52.308;20.994;2023-04-23T00:39:37;12.80;99.90
17483;DHT22;8858;52.308;20.994;2023-04-23T00:42:08;12.80;99.90
17483;DHT22;8858;52.308;20.994;2023-04-23T00:44:39;12.80;99.90
17483;DHT22;8858;52.308;20.994;2023-04-23T00:47:08;12.80;99.90
17483;DHT22;8858;52.308;20.994;2023-04-23T00:49:38;12.80;99.90
17483;DHT22;8858;52.308;20.994;2023-04-23T00:52:08;12.70;99.90
17483;DHT22;8858;52.308;20.994;2023-04-23T00:54:36;12.70;99.90
17483;DHT22;8858;52.308;20.994;2023-04-23T00:57:05;12.70;99.90
17483;DHT22;8858;52.308;20.994;2023-04-23T00:59:36;12.70;99.90
17483;DHT22;8858;52.308;20.994;2023-04-23T01:02:06;12.70;99.90
17483;DHT22;8858;52.308;20.994;2023-04-23T01:04:35;12.60;99.90
17483;DHT22;8858;52.308;20.994;2023-04-23T01:07:04;12.60;99.90
17483;DHT22;8858;52.308;20.994;2023-04-23T01:09:33;12.60;99.90
17483;DHT22;8858;52.308;20.994;2023-04-23T01:12:04;12.60;99.90
17483;DHT22;8858;52.308;20.994;2023-04-23T01:14:33;12.60;99.90
17483;DHT22;8858;52.308;20.994;2023-04-23T01:17:04;12.60;99.90
17483;DHT22;8858;52.308;20.994;2023-04-23T01:19:34;12.50;99.90
17483;DHT22;8858;52.308;20.994;2023-04-23T01:22:08;12.40;99.90
17483;DHT22;8858;52.308;20.994;2023-04-23T01:24:37;12.40;99.90
17483;DHT22;8858;52.308;20.994;2023-04-23T01:27:07;12.50;99.90
17483;DHT22;8858;52.308;20.994;2023-04-23T01:29:35;12.40;99.90
17483;DHT22;8858;52.308;20.994;2023-04-23T01:32:09;12.50;99.90
17483;DHT22;8858;52.308;20.994;2023-04-23T01:34:38;12.40;99.90
17483;DHT22;8858;52.308;20.994;2023-04-23T01:37:10;12.40;99.90
17483;DHT22;8858;52.308;20.994;2023-04-23T01:39:38;12.40;99.90
17483;DHT22;8858;52.308;20.994;2023-04-23T01:42:07;12.40;99.90
17483;DHT22;8858;52.308;20.994;2023-04-23T01:44:38;12.40;99.90
17483;DHT22;8858;52.308;20.994;2023-04-23T01:47:07;12.30;99.90
17483;DHT22;8858;52.308;20.994;2023-04-23T01:49:35;12.30;99.90
17483;DHT22;8858;52.308;20.994;2023-04-23T01:52:03;12.30;99.90
17483;DHT22;8858;52.308;20.994;2023-04-23T01:54:33;12.30;99.90
17483;DHT22;8858;52.308;20.994;2023-04-23T01:57:04;12.30;99.90
17483;DHT22;8858;52.308;20.994;2023-04-23T01:59:33;12.20;99.90
17483;DHT22;8858;52.308;20.994;2023-04-23T02:02:02;12.20;99.90
17483;DHT22;8858;52.308;20.994;2023-04-23T02:04:32;12.20;99.90
17483;DHT22;8858;52.308;20.994;2023-04-23T02:07:01;12.20;99.90
17483;DHT22;8858;52.308;20.994;2023-04-23T02:09:34;12.20;99.90
17483;DHT22;8858;52.308;20.994;2023-04-23T02:12:04;12.20;99.90
17483;DHT22;8858;52.308;20.994;2023-04-23T02:14:32;12.20;99.90
17483;DHT22;8858;52.308;20.994;2023-04-23T02:17:01;12.10;99.90
17483;DHT22;8858;52.308;20.994;2023-04-23T02:19:29;12.10;99.90
17483;DHT22;8858;52.308;20.994;2023-04-23T02:22:01;12.10;99.90
17483;DHT22;8858;52.308;20.994;2023-04-23T02:24:30;12.10;99.90
17483;DHT22;8858;52.308;20.994;2023-04-23T02:26:59;12.10;99.90
17483;DHT22;8858;52.308;20.994;2023-04-23T02:29:29;12.10;99.90
17483;DHT22;8858;52.308;20.994;2023-04-23T02:31:57;12.10;99.90
17483;DHT22;8858;52.308;20.994;2023-04-23T02:34:28;12.20;99.90
17483;DHT22;8858;52.308;20.994;2023-04-23T02:36:56;12.20;99.90
17483;DHT22;8858;52.308;20.994;2023-04-23T02:39:25;12.10;99.90
17483;DHT22;8858;52.308;20.994;2023-04-23T02:41:54;12.10;99.90
17483;DHT22;8858;52.308;20.994;2023-04-23T02:44:24;12.10;99.90
17483;DHT22;8858;52.308;20.994;2023-04-23T02:46:52;12.10;99.90
17483;DHT22;8858;52.308;20.994;2023-04-23T02:49:21;12.10;99.90
17483;DHT22;8858;52.308;20.994;2023-04-23T02:51:49;12.10;99.90
17483;DHT22;8858;52.308;20.994;2023-04-23T02:54:18;12.10;99.90
17483;DHT22;8858;52.308;20.994;2023-04-23T02:56:46;12.10;99.90
17483;DHT22;8858;52.308;20.994;2023-04-23T02:59:15;12.00;99.90
17483;DHT22;8858;52.308;20.994;2023-04-23T03:01:45;12.00;99.90
17483;DHT22;8858;52.308;20.994;2023-04-23T03:04:14;12.00;99.90
17483;DHT22;8858;52.308;20.994;2023-04-23T03:07:06;12.00;99.90
17483;DHT22;8858;52.308;20.994;2023-04-23T03:09:34;12.00;99.90
17483;DHT22;8858;52.308;20.994;2023-04-23T03:12:04;11.90;99.90
17483;DHT22;8858;52.308;20.994;2023-04-23T03:14:32;11.90;99.90
17483;DHT22;8858;52.308;20.994;2023-04-23T03:17:03;11.90;99.90
17483;DHT22;8858;52.308;20.994;2023-04-23T03:19:33;11.90;99.90
17483;DHT22;8858;52.308;20.994;2023-04-23T03:22:02;11.80;99.90
17483;DHT22;8858;52.308;20.994;2023-04-23T03:24:33;11.90;99.90
17483;DHT22;8858;52.308;20.994;2023-04-23T03:27:01;11.90;99.90
17483;DHT22;8858;52.308;20.994;2023-04-23T03:29:29;11.80;99.90
17483;DHT22;8858;52.308;20.994;2023-04-23T03:31:58;11.90;99.90
17483;DHT22;8858;52.308;20.994;2023-04-23T03:34:28;11.90;99.90
17483;DHT22;8858;52.308;20.994;2023-04-23T03:36:56;11.90;99.90
17483;DHT22;8858;52.308;20.994;2023-04-23T03:39:24;11.80;99.90
17483;DHT22;8858;52.308;20.994;2023-04-23T03:41:57;11.80;99.90
17483;DHT22;8858;52.308;20.994;2023-04-23T03:44:27;11.80;99.90
17483;DHT22;8858;52.308;20.994;2023-04-23T03:46:56;11.80;99.90
17483;DHT22;8858;52.308;20.994;2023-04-23T03:49:25;11.70;99.90
17483;DHT22;8858;52.308;20.994;2023-04-23T03:51:56;11.70;99.90
17483;DHT22;8858;52.308;20.994;2023-04-23T03:54:28;11.70;99.90
17483;DHT22;8858;52.308;20.994;2023-04-23T03:57:03;11.70;99.90
17483;DHT22;8858;52.308;20.994;2023-04-23T03:59:54;11.70;99.90
17483;DHT22;8858;52.308;20.994;2023-04-23T04:02:23;11.70;99.90
17483;DHT22;8858;52.308;20.994;2023-04-23T04:04:53;11.70;99.90
17483;DHT22;8858;52.308;20.994;2023-04-23T04:07:25;11.70;99.90
17483;DHT22;8858;52.308;20.994;2023-04-23T04:09:57;11.70;99.90
17483;DHT22;8858;52.308;20.994;2023-04-23T04:12:25;11.70;99.90
17483;DHT22;8858;52.308;20.994;2023-04-23T04:14:57;11.60;99.90
17483;DHT22;8858;52.308;20.994;2023-04-23T04:17:26;11.60;99.90
17483;DHT22;8858;52.308;20.994;2023-04-23T04:19:55;11.50;99.90
17483;DHT22;8858;52.308;20.994;2023-04-23T04:22:25;11.60;99.90
17483;DHT22;8858;52.308;20.994;2023-04-23T04:24:54;11.60;99.90
17483;DHT22;8858;52.308;20.994;2023-04-23T04:27:26;11.60;99.90
17483;DHT22;8858;52.308;20.994;2023-04-23T04:29:55;11.60;99.90
17483;DHT22;8858;52.308;20.994;2023-04-23T04:32:23;11.60;99.90
17483;DHT22;8858;52.308;20.994;2023-04-23T04:34:53;11.60;99.90
17483;DHT22;8858;52.308;20.994;2023-04-23T04:37:21;11.60;99.90
17483;DHT22;8858;52.308;20.994;2023-04-23T04:39:50;11.60;99.90
17483;DHT22;8858;52.308;20.994;2023-04-23T04:42:20;11.60;99.90
17483;DHT22;8858;52.308;20.994;2023-04-23T04:44:48;11.60;99.90
17483;DHT22;8858;52.308;20.994;2023-04-23T04:47:20;11.60;99.90
17483;DHT22;8858;52.308;20.994;2023-04-23T04:49:48;11.70;99.90
17483;DHT22;8858;52.308;20.994;2023-04-23T04:52:17;11.70;99.90
17483;DHT22;8858;52.308;20.994;2023-04-23T04:54:46;11.80;99.90
17483;DHT22;8858;52.308;20.994;2023-04-23T04:57:16;11.80;99.90
17483;DHT22;8858;52.308;20.994;2023-04-23T04:59:44;11.80;99.90
17483;DHT22;8858;52.308;20.994;2023-04-23T05:02:13;11.90;99.90
17483;DHT22;8858;52.308;20.994;2023-04-23T05:04:42;11.90;99.90
17483;DHT22;8858;52.308;20.994;2023-04-23T05:07:10;12.00;99.90
17483;DHT22;8858;52.308;20.994;2023-04-23T05:09:39;12.00;99.90
17483;DHT22;8858;52.308;20.994;2023-04-23T05:12:10;12.00;99.90
17483;DHT22;8858;52.308;20.994;2023-04-23T05:14:40;12.10;99.90
17483;DHT22;8858;52.308;20.994;2023-04-23T05:17:09;12.20;99.90
17483;DHT22;8858;52.308;20.994;2023-04-23T05:19:38;12.20;99.90
17483;DHT22;8858;52.308;20.994;2023-04-23T05:22:06;12.30;99.90
17483;DHT22;8858;52.308;20.994;2023-04-23T05:24:36;12.40;99.90
17483;DHT22;8858;52.308;20.994;2023-04-23T05:27:05;12.40;99.90
17483;DHT22;8858;52.308;20.994;2023-04-23T05:29:33;12.50;99.90
17483;DHT22;8858;52.308;20.994;2023-04-23T05:32:03;12.60;99.90
17483;DHT22;8858;52.308;20.994;2023-04-23T05:34:31;12.60;99.90
17483;DHT22;8858;52.308;20.994;2023-04-23T05:37:00;12.60;99.90
17483;DHT22;8858;52.308;20.994;2023-04-23T05:39:29;12.70;99.90
17483;DHT22;8858;52.308;20.994;2023-04-23T05:41:58;12.70;99.90
17483;DHT22;8858;52.308;20.994;2023-04-23T05:44:26;12.80;99.90
17483;DHT22;8858;52.308;20.994;2023-04-23T05:46:56;12.80;99.90
17483;DHT22;8858;52.308;20.994;2023-04-23T05:49:25;12.90;99.90
17483;DHT22;8858;52.308;20.994;2023-04-23T05:51:53;12.90;99.90
17483;DHT22;8858;52.308;20.994;2023-04-23T05:54:22;13.00;99.90
17483;DHT22;8858;52.308;20.994;2023-04-23T05:56:50;13.10;99.90
17483;DHT22;8858;52.308;20.994;2023-04-23T05:59:20;13.10;99.90
17483;DHT22;8858;52.308;20.994;2023-04-23T06:01:48;13.20;99.90
17483;DHT22;8858;52.308;20.994;2023-04-23T06:04:21;13.30;99.90
17483;DHT22;8858;52.308;20.994;2023-04-23T06:06:51;13.30;99.90
17483;DHT22;8858;52.308;20.994;2023-04-23T06:09:21;13.50;99.90
17483;DHT22;8858;52.308;20.994;2023-04-23T06:11:50;13.50;99.90
17483;DHT22;8858;52.308;20.994;2023-04-23T06:14:19;13.60;99.90
17483;DHT22;8858;52.308;20.994;2023-04-23T06:16:51;13.70;99.90
17483;DHT22;8858;52.308;20.994;2023-04-23T06:19:20;13.80;99.90
17483;DHT22;8858;52.308;20.994;2023-04-23T06:21:52;13.80;99.90
17483;DHT22;8858;52.308;20.994;2023-04-23T06:24:20;13.80;99.90
17483;DHT22;8858;52.308;20.994;2023-04-23T06:26:49;14.00;99.90
17483;DHT22;8858;52.308;20.994;2023-04-23T06:29:20;14.00;99.90
17483;DHT22;8858;52.308;20.994;2023-04-23T06:32:01;14.00;99.90
17483;DHT22;8858;52.308;20.994;2023-04-23T06:34:31;14.10;99.90
17483;DHT22;8858;52.308;20.994;2023-04-23T06:37:01;14.20;99.90
17483;DHT22;8858;52.308;20.994;2023-04-23T06:39:29;14.30;99.90
17483;DHT22;8858;52.308;20.994;2023-04-23T06:41:58;14.30;99.90
17483;DHT22;8858;52.308;20.994;2023-04-23T06:44:37;14.50;99.90
17483;DHT22;8858;52.308;20.994;2023-04-23T06:47:06;14.60;99.90
17483;DHT22;8858;52.308;20.994;2023-04-23T06:49:34;14.70;99.90
17483;DHT22;8858;52.308;20.994;2023-04-23T06:52:05;14.90;99.90
17483;DHT22;8858;52.308;20.994;2023-04-23T06:54:35;15.00;99.90
17483;DHT22;8858;52.308;20.994;2023-04-23T06:57:03;15.00;99.90
17483;DHT22;8858;52.308;20.994;2023-04-23T06:59:31;15.10;99.90
17483;DHT22;8858;52.308;20.994;2023-04-23T07:02:00;15.20;99.90
17483;DHT22;8858;52.308;20.994;2023-04-23T07:04:28;15.30;99.90
17483;DHT22;8858;52.308;20.994;2023-04-23T07:06:57;15.40;99.90
17483;DHT22;8858;52.308;20.994;2023-04-23T07:09:30;15.40;99.90
17483;DHT22;8858;52.308;20.994;2023-04-23T07:11:58;15.50;99.90
17483;DHT22;8858;52.308;20.994;2023-04-23T07:14:27;15.60;99.90
17483;DHT22;8858;52.308;20.994;2023-04-23T07:16:55;15.70;99.90
17483;DHT22;8858;52.308;20.994;2023-04-23T07:19:23;15.80;99.90
17483;DHT22;8858;52.308;20.994;2023-04-23T07:21:53;15.80;99.90
17483;DHT22;8858;52.308;20.994;2023-04-23T07:24:24;15.90;99.90
17483;DHT22;8858;52.308;20.994;2023-04-23T07:26:54;16.00;99.90
17483;DHT22;8858;52.308;20.994;2023-04-23T07:29:22;16.10;99.90
17483;DHT22;8858;52.308;20.994;2023-04-23T07:31:51;16.20;99.90
17483;DHT22;8858;52.308;20.994;2023-04-23T07:34:19;16.20;99.90
17483;DHT22;8858;52.308;20.994;2023-04-23T07:36:50;16.30;99.90
17483;DHT22;8858;52.308;20.994;2023-04-23T07:39:19;16.30;99.90
17483;DHT22;8858;52.308;20.994;2023-04-23T07:41:47;16.40;99.90
17483;DHT22;8858;52.308;20.994;2023-04-23T07:44:17;16.50;99.90
17483;DHT22;8858;52.308;20.994;2023-04-23T07:46:45;16.60;99.90
17483;DHT22;8858;52.308;20.994;2023-04-23T07:49:13;16.80;99.90
17483;DHT22;8858;52.308;20.994;2023-04-23T07:51:41;16.80;99.90
17483;DHT22;8858;52.308;20.994;2023-04-23T07:54:09;16.90;99.90
17483;DHT22;8858;52.308;20.994;2023-04-23T07:56:40;16.90;99.90
17483;DHT22;8858;52.308;20.994;2023-04-23T07:59:09;17.00;99.90
17483;DHT22;8858;52.308;20.994;2023-04-23T08:01:39;17.10;99.90
17483;DHT22;8858;52.308;20.994;2023-04-23T08:04:08;17.20;99.90
17483;DHT22;8858;52.308;20.994;2023-04-23T08:06:36;17.20;99.90
17483;DHT22;8858;52.308;20.994;2023-04-23T08:09:08;17.30;99.90
17483;DHT22;8858;52.308;20.994;2023-04-23T08:11:36;17.30;99.90
17483;DHT22;8858;52.308;20.994;2023-04-23T08:14:04;17.30;99.90
17483;DHT22;8858;52.308;20.994;2023-04-23T08:16:32;17.50;99.90
17483;DHT22;8858;52.308;20.994;2023-04-23T08:19:06;17.60;99.90
17483;DHT22;8858;52.308;20.994;2023-04-23T08:21:38;17.60;99.90
17483;DHT22;8858;52.308;20.994;2023-04-23T08:24:06;17.70;99.90
17483;DHT22;8858;52.308;20.994;2023-04-23T08:26:34;17.80;99.90
17483;DHT22;8858;52.308;20.994;2023-04-23T08:29:05;17.80;99.90
17483;DHT22;8858;52.308;20.994;2023-04-23T08:31:37;17.90;99.90
17483;DHT22;8858;52.308;20.994;2023-04-23T08:34:07;18.00;99.90
17483;DHT22;8858;52.308;20.994;2023-04-23T08:36:35;18.10;99.90
17483;DHT22;8858;52.308;20.994;2023-04-23T08:39:03;18.10;99.90
17483;DHT22;8858;52.308;20.994;2023-04-23T08:41:34;18.20;99.90
17483;DHT22;8858;52.308;20.994;2023-04-23T08:44:11;18.30;99.90
17483;DHT22;8858;52.308;20.994;2023-04-23T08:46:42;18.30;99.90
17483;DHT22;8858;52.308;20.994;2023-04-23T08:49:17;18.40;99.90
17483;DHT22;8858;52.308;20.994;2023-04-23T08:51:48;18.50;99.90
17483;DHT22;8858;52.308;20.994;2023-04-23T08:54:24;18.50;99.90
17483;DHT22;8858;52.308;20.994;2023-04-23T08:56:55;18.50;99.90
17483;DHT22;8858;52.308;20.994;2023-04-23T08:59:25;18.60;99.90
17483;DHT22;8858;52.308;20.994;2023-04-23T09:01:55;18.70;99.90
17483;DHT22;8858;52.308;20.994;2023-04-23T09:04:26;18.80;99.90
17483;DHT22;8858;52.308;20.994;2023-04-23T09:06:55;18.90;99.90
17483;DHT22;8858;52.308;20.994;2023-04-23T09:09:27;18.90;99.90
17483;DHT22;8858;52.308;20.994;2023-04-23T09:11:58;19.00;99.90
17483;DHT22;8858;52.308;20.994;2023-04-23T09:14:26;19.00;99.90
17483;DHT22;8858;52.308;20.994;2023-04-23T09:16:54;19.10;99.90
17483;DHT22;8858;52.308;20.994;2023-04-23T09:19:26;19.20;99.90
17483;DHT22;8858;52.308;20.994;2023-04-23T09:21:56;19.20;99.90
17483;DHT22;8858;52.308;20.994;2023-04-23T09:24:26;19.10;99.90
17483;DHT22;8858;52.308;20.994;2023-04-23T09:26:57;19.30;99.90
17483;DHT22;8858;52.308;20.994;2023-04-23T09:29:26;19.30;99.90
17483;DHT22;8858;52.308;20.994;2023-04-23T09:32:04;19.40;99.90
17483;DHT22;8858;52.308;20.994;2023-04-23T09:34:36;19.50;99.90
17483;DHT22;8858;52.308;20.994;2023-04-23T09:37:07;19.60;99.90
17483;DHT22;8858;52.308;20.994;2023-04-23T09:39:38;19.60;99.90
17483;DHT22;8858;52.308;20.994;2023-04-23T09:42:07;19.70;99.90
17483;DHT22;8858;52.308;20.994;2023-04-23T09:44:38;19.80;99.90
17483;DHT22;8858;52.308;20.994;2023-04-23T09:47:11;19.70;99.90
17483;DHT22;8858;52.308;20.994;2023-04-23T09:49:46;19.80;99.90
17483;DHT22;8858;52.308;20.994;2023-04-23T09:52:18;19.80;99.90
17483;DHT22;8858;52.308;20.994;2023-04-23T09:54:48;19.80;99.90
17483;DHT22;8858;52.308;20.994;2023-04-23T09:57:17;19.90;99.90
17483;DHT22;8858;52.308;20.994;2023-04-23T09:59:45;20.00;99.90
17483;DHT22;8858;52.308;20.994;2023-04-23T10:02:26;20.00;99.90
17483;DHT22;8858;52.308;20.994;2023-04-23T10:05:00;19.90;99.90
17483;DHT22;8858;52.308;20.994;2023-04-23T10:07:49;20.00;99.90
17483;DHT22;8858;52.308;20.994;2023-04-23T10:10:19;20.10;99.90
17483;DHT22;8858;52.308;20.994;2023-04-23T10:15:49;20.40;99.90
17483;DHT22;8858;52.308;20.994;2023-04-23T10:18:19;20.20;99.90
17483;DHT22;8858;52.308;20.994;2023-04-23T10:20:50;20.30;99.90
17483;DHT22;8858;52.308;20.994;2023-04-23T10:23:21;20.30;99.90
17483;DHT22;8858;52.308;20.994;2023-04-23T10:25:52;20.40;99.90
17483;DHT22;8858;52.308;20.994;2023-04-23T10:28:24;20.40;99.90
17483;DHT22;8858;52.308;20.994;2023-04-23T10:30:58;20.40;99.90
17483;DHT22;8858;52.308;20.994;2023-04-23T10:33:27;20.40;99.90
17483;DHT22;8858;52.308;20.994;2023-04-23T10:36:10;20.50;99.90
17483;DHT22;8858;52.308;20.994;2023-04-23T10:38:39;20.60;99.90
17483;DHT22;8858;52.308;20.994;2023-04-23T10:41:27;20.60;99.90
17483;DHT22;8858;52.308;20.994;2023-04-23T10:43:56;20.70;99.90
17483;DHT22;8858;52.308;20.994;2023-04-23T10:46:28;20.70;99.90
17483;DHT22;8858;52.308;20.994;2023-04-23T10:49:07;20.70;99.90
17483;DHT22;8858;52.308;20.994;2023-04-23T10:51:37;20.80;99.90
17483;DHT22;8858;52.308;20.994;2023-04-23T10:54:13;20.90;99.90
17483;DHT22;8858;52.308;20.994;2023-04-23T10:56:43;20.90;99.90
17483;DHT22;8858;52.308;20.994;2023-04-23T10:59:18;21.00;99.90
17483;DHT22;8858;52.308;20.994;2023-04-23T11:01:47;21.10;99.90
17483;DHT22;8858;52.308;20.994;2023-04-23T11:04:21;21.20;99.90
17483;DHT22;8858;52.308;20.994;2023-04-23T11:06:56;21.30;99.90
17483;DHT22;8858;52.308;20.994;2023-04-23T11:09:37;21.30;99.90
17483;DHT22;8858;52.308;20.994;2023-04-23T11:12:08;21.30;99.90
17483;DHT22;8858;52.308;20.994;2023-04-23T11:14:44;21.40;99.90
17483;DHT22;8858;52.308;20.994;2023-04-23T11:17:14;21.40;99.90
17483;DHT22;8858;52.308;20.994;2023-04-23T11:20:05;21.50;99.70
17483;DHT22;8858;52.308;20.994;2023-04-23T11:22:38;21.60;99.80
17483;DHT22;8858;52.308;20.994;2023-04-23T11:25:08;21.60;99.90
17483;DHT22;8858;52.308;20.994;2023-04-23T11:27:39;21.70;99.90
17483;DHT22;8858;52.308;20.994;2023-04-23T11:30:11;21.90;99.90
17483;DHT22;8858;52.308;20.994;2023-04-23T11:32:43;22.00;99.70
17483;DHT22;8858;52.308;20.994;2023-04-23T11:35:13;22.10;99.90
17483;DHT22;8858;52.308;20.994;2023-04-23T11:37:44;22.20;98.30
17483;DHT22;8858;52.308;20.994;2023-04-23T11:40:15;22.20;98.70
17483;DHT22;8858;52.308;20.994;2023-04-23T11:42:46;22.10;99.00
17483;DHT22;8858;52.308;20.994;2023-04-23T11:45:17;22.30;98.30
17483;DHT22;8858;52.308;20.994;2023-04-23T11:47:47;22.30;99.20
17483;DHT22;8858;52.308;20.994;2023-04-23T11:50:18;22.50;98.30
17483;DHT22;8858;52.308;20.994;2023-04-23T11:52:51;22.50;97.30
17483;DHT22;8858;52.308;20.994;2023-04-23T11:55:21;22.50;97.90
17483;DHT22;8858;52.308;20.994;2023-04-23T11:57:51;22.60;97.50
17483;DHT22;8858;52.308;20.994;2023-04-23T12:00:21;22.60;97.70
17483;DHT22;8858;52.308;20.994;2023-04-23T12:02:50;22.70;96.90
17483;DHT22;8858;52.308;20.994;2023-04-23T12:05:20;22.80;97.20
17483;DHT22;8858;52.308;20.994;2023-04-23T12:07:51;23.00;96.60
17483;DHT22;8858;52.308;20.994;2023-04-23T12:10:20;23.00;96.30
17483;DHT22;8858;52.308;20.994;2023-04-23T12:12:49;22.90;96.30
17483;DHT22;8858;52.308;20.994;2023-04-23T12:15:20;23.00;96.40
17483;DHT22;8858;52.308;20.994;2023-04-23T12:17:49;23.10;95.90
17483;DHT22;8858;52.308;20.994;2023-04-23T12:20:18;23.20;96.00
17483;DHT22;8858;52.308;20.994;2023-04-23T12:22:53;23.30;96.00
17483;DHT22;8858;52.308;20.994;2023-04-23T12:25:22;23.50;93.80
17483;DHT22;8858;52.308;20.994;2023-04-23T12:27:50;23.70;93.40
17483;DHT22;8858;52.308;20.994;2023-04-23T12:30:19;23.90;93.90
17483;DHT22;8858;52.308;20.994;2023-04-23T12:32:47;24.10;93.10
17483;DHT22;8858;52.308;20.994;2023-04-23T12:35:16;24.20;94.00
17483;DHT22;8858;52.308;20.994;2023-04-23T12:37:45;24.30;93.70
17483;DHT22;8858;52.308;20.994;2023-04-23T12:40:15;24.40;93.70
17483;DHT22;8858;52.308;20.994;2023-04-23T12:42:45;24.40;91.70
17483;DHT22;8858;52.308;20.994;2023-04-23T12:45:14;24.50;92.60
17483;DHT22;8858;52.308;20.994;2023-04-23T12:47:42;24.70;93.20
17483;DHT22;8858;52.308;20.994;2023-04-23T12:50:11;24.70;92.50
17483;DHT22;8858;52.308;20.994;2023-04-23T12:52:42;24.60;93.20
17483;DHT22;8858;52.308;20.994;2023-04-23T12:55:11;24.70;91.30
17483;DHT22;8858;52.308;20.994;2023-04-23T12:57:41;25.00;92.00
17483;DHT22;8858;52.308;20.994;2023-04-23T13:00:10;25.20;91.70
17483;DHT22;8858;52.308;20.994;2023-04-23T13:02:38;25.50;91.30
17483;DHT22;8858;52.308;20.994;2023-04-23T13:05:10;25.70;90.60
17483;DHT22;8858;52.308;20.994;2023-04-23T13:07:38;25.80;91.10
17483;DHT22;8858;52.308;20.994;2023-04-23T13:10:07;25.90;88.50
17483;DHT22;8858;52.308;20.994;2023-04-23T13:12:36;26.10;88.80
17483;DHT22;8858;52.308;20.994;2023-04-23T13:15:07;26.20;87.90
17483;DHT22;8858;52.308;20.994;2023-04-23T13:17:38;26.60;90.20
17483;DHT22;8858;52.308;20.994;2023-04-23T13:20:07;27.00;90.10
17483;DHT22;8858;52.308;20.994;2023-04-23T13:22:35;26.90;88.10
17483;DHT22;8858;52.308;20.994;2023-04-23T13:25:04;27.00;85.10
17483;DHT22;8858;52.308;20.994;2023-04-23T13:27:32;27.40;86.50
17483;DHT22;8858;52.308;20.994;2023-04-23T13:30:01;27.90;85.80
17483;DHT22;8858;52.308;20.994;2023-04-23T13:32:33;28.00;84.40
17483;DHT22;8858;52.308;20.994;2023-04-23T13:35:01;28.70;82.40
17483;DHT22;8858;52.308;20.994;2023-04-23T13:37:31;29.20;80.80
17483;DHT22;8858;52.308;20.994;2023-04-23T13:40:01;29.50;78.50
17483;DHT22;8858;52.308;20.994;2023-04-23T13:42:32;30.10;77.40
17483;DHT22;8858;52.308;20.994;2023-04-23T13:45:01;29.90;71.80
17483;DHT22;8858;52.308;20.994;2023-04-23T13:47:34;30.40;74.30
17483;DHT22;8858;52.308;20.994;2023-04-23T13:50:03;30.90;74.70
17483;DHT22;8858;52.308;20.994;2023-04-23T13:52:33;31.60;71.90
17483;DHT22;8858;52.308;20.994;2023-04-23T13:55:03;31.80;68.90
17483;DHT22;8858;52.308;20.994;2023-04-23T13:57:33;31.80;69.00
17483;DHT22;8858;52.308;20.994;2023-04-23T14:00:01;31.50;68.70
17483;DHT22;8858;52.308;20.994;2023-04-23T14:02:30;32.10;68.30
17483;DHT22;8858;52.308;20.994;2023-04-23T14:04:59;32.10;66.50
17483;DHT22;8858;52.308;20.994;2023-04-23T14:07:30;32.30;67.20
17483;DHT22;8858;52.308;20.994;2023-04-23T14:09:58;32.70;65.30
17483;DHT22;8858;52.308;20.994;2023-04-23T14:12:27;32.70;64.80
17483;DHT22;8858;52.308;20.994;2023-04-23T14:14:56;32.60;64.70
17483;DHT22;8858;52.308;20.994;2023-04-23T14:17:25;32.60;62.50
17483;DHT22;8858;52.308;20.994;2023-04-23T14:19:53;32.10;64.10
17483;DHT22;8858;52.308;20.994;2023-04-23T14:22:25;32.30;65.40
17483;DHT22;8858;52.308;20.994;2023-04-23T14:24:56;32.30;64.20
17483;DHT22;8858;52.308;20.994;2023-04-23T14:27:37;31.80;63.70
17483;DHT22;8858;52.308;20.994;2023-04-23T14:30:13;32.40;65.00
17483;DHT22;8858;52.308;20.994;2023-04-23T14:32:42;33.20;62.90
17483;DHT22;8858;52.308;20.994;2023-04-23T14:35:16;33.50;61.80
17483;DHT22;8858;52.308;20.994;2023-04-23T14:38:09;33.50;61.80
17483;DHT22;8858;52.308;20.994;2023-04-23T14:40:37;33.50;60.70
17483;DHT22;8858;52.308;20.994;2023-04-23T14:43:06;33.30;60.70
17483;DHT22;8858;52.308;20.994;2023-04-23T14:45:41;33.10;60.40
17483;DHT22;8858;52.308;20.994;2023-04-23T14:48:10;33.60;60.80
17483;DHT22;8858;52.308;20.994;2023-04-23T14:50:38;34.10;61.10
17483;DHT22;8858;52.308;20.994;2023-04-23T14:53:06;33.70;58.40
17483;DHT22;8858;52.308;20.994;2023-04-23T14:55:37;33.90;59.70
17483;DHT22;8858;52.308;20.994;2023-04-23T14:58:08;34.20;58.10
17483;DHT22;8858;52.308;20.994;2023-04-23T15:00:37;34.50;58.90
17483;DHT22;8858;52.308;20.994;2023-04-23T15:03:06;34.00;58.30
17483;DHT22;8858;52.308;20.994;2023-04-23T15:05:39;34.50;58.70
17483;DHT22;8858;52.308;20.994;2023-04-23T15:08:07;34.80;57.80
17483;DHT22;8858;52.308;20.994;2023-04-23T15:10:37;34.60;57.00
17483;DHT22;8858;52.308;20.994;2023-04-23T15:13:29;34.40;57.60
17483;DHT22;8858;52.308;20.994;2023-04-23T15:16:01;33.10;56.20
17483;DHT22;8858;52.308;20.994;2023-04-23T15:18:31;33.00;58.80
17483;DHT22;8858;52.308;20.994;2023-04-23T15:20:59;33.30;58.30
17483;DHT22;8858;52.308;20.994;2023-04-23T15:23:31;33.30;58.30
17483;DHT22;8858;52.308;20.994;2023-04-23T15:26:01;32.80;58.70
17483;DHT22;8858;52.308;20.994;2023-04-23T15:28:29;32.90;58.70
17483;DHT22;8858;52.308;20.994;2023-04-23T15:30:57;33.00;58.50
17483;DHT22;8858;52.308;20.994;2023-04-23T15:33:25;33.00;58.30
17483;DHT22;8858;52.308;20.994;2023-04-23T15:35:54;33.00;58.10
17483;DHT22;8858;52.308;20.994;2023-04-23T15:38:26;33.50;58.90
17483;DHT22;8858;52.308;20.994;2023-04-23T15:40:55;33.80;57.30
17483;DHT22;8858;52.308;20.994;2023-04-23T15:43:25;33.70;57.60
17483;DHT22;8858;52.308;20.994;2023-04-23T15:45:53;34.00;58.20
17483;DHT22;8858;52.308;20.994;2023-04-23T15:48:24;33.60;58.40
17483;DHT22;8858;52.308;20.994;2023-04-23T15:50:54;33.50;58.00
17483;DHT22;8858;52.308;20.994;2023-04-23T15:53:23;33.70;57.80